Latest Weather Observations for Coonamble

IDN60801

Issued at 10:02 am EDT Wednesday 22 February 2017 (issued every 30 minutes, with the page automatically refreshed every 10 minutes)

About weather observations | Map of weather stations | Latest weather observations for NSW | Other Formats
Station Details ID: 051161 Name: COONAMBLE AIRPORT AWS Lat: -30.98 Lon: 148.38 Height: 181.3 m
Data from the previous 72 hours. | See also: Recent months at Coonamble
Date/Time
EDT
Temp
°C
App
Temp
°C
Dew
Point
°C
Rel
Hum
%
Delta-T
°C
Wind Press
QNH
hPa
Press
MSL
hPa
Rain since
9am
mm
Dir  Spd
km/h
Gust
km/h
Spd
kts
Gust
kts
22/10:00am 27.0 23.2 14.7 47 7.4 NNE 28 37 15 20 1019.5 1018.4 0.0
22/09:30am 25.8 20.9 14.3 49 6.9 NNE 33 46 18 25 1019.6 1018.5 0.0
22/09:00am 25.2 21.3 14.3 50 6.5 NNE 28 43 15 23 1019.5 1018.4 0.0
22/08:30am 24.4 21.2 14.2 53 6.1 NNE 24 35 13 19 1019.2 1018.1 0.0
22/08:00am 21.1 18.2 9.7 48 6.2 NE 15 20 8 11 1019.0 1017.9 0.0
22/07:30am 18.1 14.7 6.0 45 6.0 ENE 13 19 7 10 1018.5 1017.4 0.0
22/07:00am 15.9 11.6 3.0 42 5.9 ENE 15 17 8 9 1018.0 1016.9 0.0
22/06:30am 16.2 11.7 1.9 38 6.4 ENE 15 19 8 10 1017.6 1016.5 0.0
22/06:00am 15.3 10.9 2.8 43 5.7 ENE 15 17 8 9 1017.0 1016.0 0.0
22/05:30am 15.4 10.9 0.0 35 6.6 ENE 13 17 7 9 1016.7 1015.7 0.0
22/05:00am 14.6 10.8 -0.7 35 6.4 E 9 11 5 6 1016.1 1015.1 0.0
22/04:30am 14.9 11.1 -0.8 34 6.6 ENE 9 11 5 6 1016.0 1015.0 0.0
22/04:00am 15.3 10.6 -1.7 31 7.0 ENE 13 15 7 8 1016.1 1015.1 0.0
22/03:30am 15.9 10.3 -2.6 28 7.5 ENE 17 22 9 12 1016.1 1015.1 0.0
22/03:00am 19.1 14.5 -3.7 21 9.3 SE 11 13 6 7 1016.1 1015.1 0.0
22/02:30am 20.0 14.9 -5.0 18 10.1 SSE 13 15 7 8 1016.2 1015.2 0.0
22/02:00am 20.4 15.3 -5.4 17 10.3 SSE 13 17 7 9 1016.3 1015.3 0.0
22/01:30am 20.5 15.1 -4.6 18 10.3 SSE 15 19 8 10 1016.5 1015.5 0.0
22/01:00am 20.6 15.2 -4.5 18 10.3 SE 15 17 8 9 1016.5 1015.5 0.0
22/12:30am 20.6 15.7 -3.8 19 10.1 SSE 13 15 7 8 1016.6 1015.6 0.0
22/12:00am 20.9 16.3 -4.3 18 10.4 SSE 11 13 6 7 1016.6 1015.6 0.0
 
Date/Time
EDT
Temp
°C
App
Temp
°C
Dew
Point
°C
Rel
Hum
%
Delta-T
°C
Wind Press
QNH
hPa
Press
MSL
hPa
Rain since
9am
mm
Dir  Spd
km/h
Gust
km/h
Spd
kts
Gust
kts
21/11:30pm 22.3 17.3 -4.7 16 11.2 SSE 13 15 7 8 1016.7 1015.7 0.0
21/11:00pm 21.4 17.4 -2.5 20 10.2 S 9 11 5 6 1016.8 1015.8 0.0
21/10:30pm 21.6 17.9 -3.0 19 10.5 SSW 7 11 4 6 1016.9 1015.9 0.0
21/10:00pm 22.6 18.0 -3.7 17 11.1 S 11 13 6 7 1016.8 1015.8 0.0
21/09:30pm 22.2 18.2 -2.5 19 10.7 S 9 11 5 6 1016.7 1015.7 0.0
21/09:00pm 22.8 19.0 -3.5 17 11.2 SSW 7 9 4 5 1016.5 1015.5 0.0
21/08:30pm 24.9 20.7 -3.5 15 12.3 S 9 9 5 5 1016.1 1015.1 0.0
21/08:00pm 25.9 22.1 -3.6 14 12.9 S 7 9 4 5 1015.9 1014.9 0.0
21/07:30pm 28.7 24.4 -4.6 11 14.6 SSW 9 11 5 6 1015.8 1014.8 0.0
21/07:00pm 30.0 26.5 -6.3 9 15.7 SSE 4 9 2 5 1015.7 1014.7 0.0
21/06:30pm 30.5 26.1 -5.9 9 15.9 SE 9 19 5 10 1015.4 1014.4 0.0
21/06:00pm 30.8 26.4 -5.7 9 16.0 SE 9 15 5 8 1015.3 1014.2 0.0
21/05:30pm 31.1 26.7 -5.5 9 16.2 SSE 9 13 5 7 1015.3 1014.2 0.0
21/05:00pm 31.3 26.8 -6.8 8 16.5 S 9 19 5 10 1015.4 1014.4 0.0
21/04:30pm 31.1 26.2 -7.0 8 16.4 SW 11 24 6 13 1015.4 1014.4 0.0
21/04:00pm 31.2 26.1 -5.4 9 16.2 WSW 13 22 7 12 1015.7 1014.7 0.0
21/03:30pm 30.6 25.4 -5.8 9 15.9 SSW 13 24 7 13 1015.8 1014.8 0.0
21/03:00pm 31.4 26.3 -5.2 9 16.3 SW 13 20 7 11 1015.9 1014.9 0.0
21/02:30pm 31.0 25.9 -5.5 9 16.1 SE 13 26 7 14 1016.2 1015.2 0.0
21/02:00pm 30.3 24.4 -6.1 9 15.8 WSW 17 26 9 14 1016.6 1015.6 0.0
21/01:30pm 29.6 23.7 -5.2 10 15.3 SSW 17 26 9 14 1017.0 1016.0 0.0
21/01:00pm 29.8 25.2 -3.8 11 15.1 SW 11 19 6 10 1017.7 1016.6 0.0
21/12:30pm 28.6 24.3 -4.7 11 14.6 WNW 9 22 5 12 1018.2 1017.1 0.0
21/12:00pm 27.7 23.0 -5.4 11 14.2 SW 11 19 6 10 1018.8 1017.7 0.0
21/11:30am 28.4 23.7 -4.9 11 14.5 W 11 22 6 12 1019.3 1018.2 0.0
21/11:00am 26.6 22.7 -5.1 12 13.5 SW 7 13 4 7 1019.5 1018.4 0.0
21/10:30am 25.9 21.5 -5.6 12 13.3 SSW 9 17 5 9 1019.6 1018.5 0.0
21/10:00am 24.9 21.3 -3.5 15 12.3 ESE 6 9 3 5 1019.4 1018.3 0.0
21/09:30am 23.2 19.8 -1.7 19 11.0 E 6 9 3 5 1019.3 1018.2 0.0
21/09:00am 20.6 17.1 -1.2 23 9.5 SE 7 11 4 6 1019.0 1017.9 0.0
21/08:30am 18.3 14.4 -1.5 26 8.4 SE 9 13 5 7 1018.6 1017.5 0.0
21/08:00am 16.6 14.5 -0.6 31 7.3 CALM 0 0 0 0 1018.1 1017.0 0.0
21/07:30am 13.9 11.4 -1.3 35 6.2 ENE 2 6 1 3 1017.7 1016.6 0.0
21/07:00am 13.7 11.1 -1.5 35 6.2 SE 2 7 1 4 1017.1 1016.1 0.0
21/06:30am 14.4 10.0 -2.1 32 6.7 SE 11 15 6 8 1016.6 1015.6 0.0
21/06:00am 16.1 10.9 -2.4 28 7.6 SSE 15 19 8 10 1016.4 1015.4 0.0
21/05:30am 16.9 11.4 -2.2 27 7.9 SSE 17 22 9 12 1015.9 1014.9 0.0
21/05:00am 16.6 11.0 -2.5 27 7.8 SSE 17 20 9 11 1015.7 1014.7 0.0
21/04:30am 16.6 10.7 -2.5 27 7.8 S 19 22 10 12 1015.6 1014.6 0.0
21/04:00am 16.3 10.8 -2.2 28 7.6 SSE 17 22 9 12 1015.7 1014.7 0.0
21/03:30am 16.7 11.5 -2.4 27 7.9 SSE 15 20 8 11 1015.8 1014.8 0.0
21/03:00am 17.5 11.5 -2.7 25 8.3 SSE 19 26 10 14 1015.4 1014.4 0.0
21/02:30am 18.7 12.5 -3.4 22 9.1 SSE 20 26 11 14 1015.4 1014.4 0.0
21/02:00am 18.5 12.4 -2.4 24 8.7 S 20 28 11 15 1015.8 1014.8 0.0
21/01:30am 17.2 12.1 -1.9 27 8.0 SSE 15 19 8 10 1016.1 1015.1 0.0
21/01:00am 17.7 12.7 -1.5 27 8.1 SSE 15 19 8 10 1016.3 1015.3 0.0
21/12:30am 18.2 13.5 -1.6 26 8.4 SSE 13 17 7 9 1016.4 1015.4 0.0
21/12:00am 18.7 13.6 -1.7 25 8.7 SSE 15 20 8 11 1016.3 1015.3 0.0
 
Date/Time
EDT
Temp
°C
App
Temp
°C
Dew
Point
°C
Rel
Hum
%
Delta-T
°C
Wind Press
QNH
hPa
Press
MSL
hPa
Rain since
9am
mm
Dir  Spd
km/h
Gust
km/h
Spd
kts
Gust
kts
20/11:30pm 19.4 14.3 -1.7 24 9.0 SSE 15 19 8 10 1016.3 1015.3 0.0
20/11:00pm 19.8 15.2 -1.3 24 9.1 SSE 13 17 7 9 1016.1 1015.1 0.0
20/10:30pm 19.9 15.7 -0.7 25 9.0 SSE 11 11 6 6 1016.0 1015.0 0.0
20/10:00pm 20.9 16.4 -0.4 24 9.5 S 13 19 7 10 1015.9 1014.9 0.0
20/09:30pm 20.6 16.5 -0.1 25 9.3 S 11 15 6 8 1015.5 1014.5 0.0
20/09:00pm 21.3 16.8 -0.1 24 9.6 S 13 13 7 7 1015.1 1014.0 0.0
20/08:30pm 22.1 18.0 0.0 23 10.0 S 11 11 6 6 1014.6 1013.5 0.0
20/08:00pm 22.9 18.7 -1.2 20 10.8 SSW 11 17 6 9 1014.0 1012.9 0.0
20/07:30pm 24.9 19.4 -1.8 17 12.0 SSW 17 22 9 12 1013.4 1012.3 0.0
20/07:00pm 26.0 20.7 -0.9 17 12.4 SSW 17 24 9 13 1013.0 1011.9 0.0
20/06:30pm 26.4 20.0 -1.4 16 12.7 SSW 22 30 12 16 1012.6 1011.5 0.0
20/06:00pm 26.7 20.9 -0.3 17 12.6 SW 20 32 11 17 1012.6 1011.5 0.0
20/05:30pm 26.9 21.1 -0.2 17 12.7 SW 20 26 11 14 1012.2 1011.1 0.0
20/05:00pm 27.5 22.0 0.3 17 12.9 SSW 19 32 10 17 1012.2 1011.1 0.0
20/04:30pm 26.7 20.5 -0.3 17 12.6 SW 22 33 12 18 1012.2 1011.1 0.0
20/04:00pm 27.1 21.4 -0.9 16 13.0 WSW 19 28 10 15 1012.4 1011.3 0.0
20/03:30pm 26.9 21.0 -1.0 16 12.9 SSW 20 30 11 16 1012.6 1011.5 0.0
20/03:00pm 26.7 21.8 -0.3 17 12.6 SW 15 28 8 15 1012.7 1011.6 0.0
20/02:30pm 26.1 20.3 0.0 18 12.2 SSW 20 32 11 17 1013.1 1012.0 0.0
20/02:00pm 25.4 19.7 0.8 20 11.6 SW 20 32 11 17 1013.4 1012.3 0.0
20/01:30pm 25.0 20.0 1.2 21 11.3 SSW 17 32 9 17 1013.7 1012.6 0.0
20/01:00pm 25.0 20.4 1.8 22 11.1 SW 15 20 8 11 1014.2 1013.1 0.0
20/12:30pm 24.2 19.2 1.2 22 10.9 SW 17 26 9 14 1014.5 1013.4 0.0
20/12:00pm 23.6 18.1 1.9 24 10.3 SSW 20 32 11 17 1014.7 1013.6 0.0
20/11:30am 22.9 17.6 1.9 25 9.9 SW 19 32 10 17 1015.0 1013.9 0.0
20/11:00am 22.7 17.5 2.2 26 9.7 SSW 19 28 10 15 1015.0 1013.9 0.0
20/10:30am 21.8 16.2 1.5 26 9.5 S 20 32 11 17 1015.1 1014.0 0.0
20/10:00am 21.0 14.6 0.8 26 9.2 SSW 24 30 13 16 1014.9 1013.8 0.0
20/09:30am 20.1 14.5 1.0 28 8.7 SSE 20 26 11 14 1014.7 1013.6 0.0
20/09:00am 19.1 13.0 0.7 29 8.3 S 22 30 12 16 1014.2 1013.1 0.0
20/08:30am 17.9 12.8 0.6 31 7.7 S 17 26 9 14 1014.2 1013.1 0.0
20/08:00am 15.7 11.4 0.7 36 6.5 S 13 19 7 10 1013.7 1012.6 0.0
20/07:30am 13.7 10.2 1.4 43 5.3 SE 9 11 5 6 1013.4 1012.3 0.0
20/07:00am 12.2 8.6 0.6 45 4.9 SSE 9 11 5 6 1013.1 1012.0 0.0
20/06:30am 13.0 8.6 0.4 42 5.3 SSW 13 15 7 8 1012.9 1011.8 0.0
20/06:00am 13.6 8.8 0.3 40 5.6 SSW 15 17 8 9 1012.6 1011.5 0.0
20/05:30am 13.3 9.0 0.7 42 5.4 SSW 13 15 7 8 1012.6 1011.5 0.0
20/05:00am 13.3 9.2 0.0 40 5.6 SSW 11 13 6 7 1012.5 1011.4 0.0
20/04:30am 13.9 9.8 -0.2 38 5.9 SSW 11 15 6 8 1012.2 1011.1 0.0
20/04:00am 13.9 9.8 -0.5 37 6.0 SSW 11 15 6 8 1012.0 1010.9 0.0
20/03:30am 15.2 10.3 -0.5 34 6.6 SSW 15 19 8 10 1011.7 1010.6 0.0
20/03:00am 15.9 10.6 -0.8 32 7.1 SSW 17 20 9 11 1011.4 1010.4 0.0
20/02:30am 16.9 11.2 -0.8 30 7.6 SSW 19 22 10 12 1011.4 1010.4 0.0
20/02:00am 16.7 11.8 -0.5 31 7.4 S 15 19 8 10 1011.5 1010.5 0.0
20/01:30am 15.9 11.5 0.1 34 6.8 SSW 13 17 7 9 1011.7 1010.6 0.0
20/01:00am 15.3 11.2 -0.4 34 6.7 SW 11 13 6 7 1011.7 1010.6 0.0
20/12:30am 16.4 13.0 -0.8 31 7.3 SW 7 9 4 5 1011.5 1010.5 0.0
20/12:00am 16.3 12.4 -1.3 30 7.4 SW 9 9 5 5 1011.3 1010.3 0.0
 
Date/Time
EDT
Temp
°C
App
Temp
°C
Dew
Point
°C
Rel
Hum
%
Delta-T
°C
Wind Press
QNH
hPa
Press
MSL
hPa
Rain since
9am
mm
Dir  Spd
km/h
Gust
km/h
Spd
kts
Gust
kts
19/11:30pm 16.6 13.2 -2.0 28 7.7 WSW 6 7 3 4 1011.1 1010.1 0.0
19/11:00pm 17.6 13.7 -1.6 27 8.1 SW 9 9 5 5 1010.9 1009.9 0.0
19/10:30pm 18.7 14.4 -1.7 25 8.7 SSW 11 11 6 6 1010.7 1009.7 0.0
19/10:00pm 19.0 14.7 -1.4 25 8.8 SSW 11 13 6 7 1010.5 1009.5 0.0
19/09:30pm 19.6 15.2 -2.1 23 9.2 SSW 11 13 6 7 1010.2 1009.1 0.0
19/09:00pm 20.8 16.4 -2.3 21 9.9 SW 11 15 6 8 1009.7 1008.6 0.0
19/08:30pm 21.8 16.5 -3.5 18 10.7 SSW 15 19 8 10 1009.3 1008.2 0.0
19/08:00pm 23.3 18.0 -3.9 16 11.6 SW 15 22 8 12 1008.9 1007.8 0.0
19/07:30pm 24.7 17.9 -5.5 13 12.6 SW 22 32 12 17 1008.4 1007.3 0.0
19/07:00pm 26.0 19.2 -5.6 12 13.4 SW 22 39 12 21 1007.9 1006.8 0.0
19/06:30pm 26.7 19.8 -6.2 11 13.8 WSW 22 30 12 16 1007.9 1006.8 0.0
19/06:00pm 27.1 19.7 -7.1 10 14.2 WSW 24 37 13 20 1008.0 1006.9 0.0
19/05:30pm 27.6 20.6 -6.7 10 14.4 WSW 22 32 12 17 1007.7 1006.6 0.0
19/05:00pm 27.4 19.5 -8.2 9 14.6 SW 26 35 14 19 1007.3 1006.2 0.0
19/04:30pm 27.7 20.0 -6.6 10 14.4 SW 26 37 14 20 1007.4 1006.3 0.0
19/04:00pm 28.0 20.7 -6.4 10 14.6 SSW 24 39 13 21 1007.8 1006.7 0.0
19/03:30pm 28.2 20.1 -6.3 10 14.7 SSW 28 54 15 29 1008.1 1007.0 0.0
19/03:00pm 28.0 21.8 -5.2 11 14.4 SW 19 35 10 19 1008.4 1007.3 0.0
19/02:30pm 27.6 21.4 -3.3 13 13.8 WSW 20 35 11 19 1008.6 1007.5 0.0
19/02:00pm 27.4 20.9 -2.4 14 13.5 WSW 22 35 12 19 1008.9 1007.8 0.0
19/01:30pm 26.4 20.3 -2.3 15 12.9 WSW 20 37 11 20 1009.3 1008.2 0.0
19/01:00pm 26.6 20.1 -2.1 15 13.0 SW 22 39 12 21 1009.6 1008.5 0.0
19/12:30pm 25.9 19.0 -2.7 15 12.7 SW 24 37 13 20 1010.1 1009.0 0.0
19/12:00pm 25.5 18.7 -2.1 16 12.4 S 24 37 13 20 1010.5 1009.5 0.0
19/11:30am 25.2 18.4 -1.6 17 12.1 SSW 24 39 13 21 1010.8 1009.8 0.0
19/11:00am 23.7 15.7 -2.0 18 11.4 SSW 30 39 16 21 1011.0 1010.0 0.0
19/10:30am 22.9 14.6 -1.9 19 10.9 S 32 43 17 23 1010.8 1009.8 0.0

Other Formats:

Comma delimited format used in spreadsheet applications
http://www.bom.gov.au/fwo/IDN60801/IDN60801.95718.axf

JavaScript Object Notation format (JSON) in row-major order
http://www.bom.gov.au/fwo/IDN60801/IDN60801.95718.json